createdAt,value
2018-09-25T00:02:06.729Z,2.53
2018-09-25T00:04:40.517Z,2.50
2018-09-25T00:07:14.536Z,3.13
2018-09-25T00:09:48.583Z,3.67
2018-09-25T00:12:22.484Z,2.93
2018-09-25T00:14:56.298Z,3.07
2018-09-25T00:17:30.201Z,3.60
2018-09-25T00:20:04.066Z,4.87
2018-09-25T00:22:37.838Z,6.00
2018-09-25T00:25:11.678Z,3.90
2018-09-25T00:27:45.640Z,4.30
2018-09-25T00:30:19.503Z,2.80
2018-09-25T00:32:53.435Z,3.40
2018-09-25T00:35:27.231Z,3.80
2018-09-25T00:38:01.840Z,3.73
2018-09-25T00:40:35.817Z,4.43
2018-09-25T00:43:09.718Z,3.50
2018-09-25T00:45:43.565Z,3.73
2018-09-25T00:48:17.512Z,3.40
2018-09-25T00:50:51.362Z,3.77
2018-09-25T00:53:25.393Z,3.67
2018-09-25T00:55:59.291Z,4.43
2018-09-25T00:58:33.327Z,3.03
2018-09-25T01:01:07.898Z,3.50
2018-09-25T01:03:41.844Z,7.03
2018-09-25T01:06:15.790Z,4.40
2018-09-25T01:08:49.864Z,3.03
2018-09-25T01:11:23.733Z,3.33
2018-09-25T01:13:57.646Z,3.00
2018-09-25T01:16:31.412Z,3.40
2018-09-25T01:19:05.339Z,5.30
2018-09-25T01:21:39.213Z,3.20
2018-09-25T01:24:13.210Z,4.73
2018-09-25T01:26:47.143Z,4.40
2018-09-25T01:29:21.120Z,3.37
2018-09-25T01:31:54.912Z,3.70
2018-09-25T01:34:28.893Z,3.17
2018-09-25T01:37:02.725Z,3.57
2018-09-25T01:39:36.787Z,3.57
2018-09-25T01:42:10.806Z,3.60
2018-09-25T01:44:44.675Z,3.33
2018-09-25T01:47:18.496Z,3.57
2018-09-25T01:49:52.371Z,3.07
2018-09-25T01:52:26.270Z,3.63
2018-09-25T01:55:00.200Z,3.50
2018-09-25T01:57:34.128Z,3.50
2018-09-25T02:00:08.552Z,3.70
2018-09-25T02:02:42.409Z,4.57
2018-09-25T02:05:16.369Z,3.90
2018-09-25T02:07:50.289Z,5.93
2018-09-25T02:10:24.506Z,3.77
2018-09-25T02:12:58.393Z,3.70
2018-09-25T02:15:32.281Z,3.30
2018-09-25T02:18:06.312Z,6.10
2018-09-25T02:20:40.165Z,4.07
2018-09-25T02:23:14.164Z,3.87
2018-09-25T02:25:48.011Z,3.73
2018-09-25T02:28:21.906Z,4.77
2018-09-25T02:30:55.742Z,4.47
2018-09-25T02:33:29.597Z,5.13
2018-09-25T02:36:03.410Z,4.07
2018-09-25T02:38:37.393Z,3.63
2018-09-25T02:41:11.286Z,5.57
2018-09-25T02:43:45.172Z,4.20
2018-09-25T02:46:18.956Z,4.20
2018-09-25T02:48:52.845Z,3.90
2018-09-25T02:51:26.753Z,4.77
2018-09-25T02:54:00.709Z,5.03
2018-09-25T02:56:34.662Z,4.70
2018-09-25T02:59:09.653Z,4.43
2018-09-25T03:01:43.682Z,4.50
2018-09-25T03:04:17.614Z,4.37
2018-09-25T03:06:51.327Z,5.27
2018-09-25T03:09:25.111Z,5.20
2018-09-25T03:11:58.904Z,4.77
2018-09-25T03:14:32.902Z,4.47
2018-09-25T03:17:06.617Z,4.20
2018-09-25T03:19:40.570Z,5.27
2018-09-25T03:22:14.291Z,5.50
2018-09-25T03:24:48.194Z,4.20
2018-09-25T03:27:22.032Z,4.07
2018-09-25T03:29:55.819Z,4.60
2018-09-25T03:32:29.829Z,6.40
2018-09-25T03:35:03.709Z,4.17
2018-09-25T03:37:37.691Z,5.10
2018-09-25T03:40:11.624Z,4.43
2018-09-25T03:42:45.465Z,3.90
2018-09-25T03:45:19.466Z,4.63
2018-09-25T03:47:53.303Z,6.30
2018-09-25T03:50:27.162Z,5.20
2018-09-25T03:53:01.763Z,5.00
2018-09-25T03:55:35.630Z,5.10
2018-09-25T03:58:09.525Z,4.47
2018-09-25T04:00:43.470Z,5.27
2018-09-25T04:03:17.209Z,5.00
2018-09-25T04:05:51.126Z,5.87
2018-09-25T04:08:24.970Z,4.63
2018-09-25T04:10:59.010Z,4.63
2018-09-25T04:13:32.910Z,4.27
2018-09-25T04:16:06.771Z,4.50
2018-09-25T04:18:40.757Z,4.70
2018-09-25T04:21:14.569Z,5.30
2018-09-25T04:23:48.465Z,5.33
2018-09-25T04:26:22.319Z,4.63
2018-09-25T04:28:56.129Z,4.17
2018-09-25T04:31:29.933Z,4.20
2018-09-25T04:34:03.875Z,4.70
2018-09-25T04:36:37.963Z,4.60
2018-09-25T04:39:14.107Z,4.90
2018-09-25T04:41:48.234Z,5.37
2018-09-25T04:44:22.130Z,3.83
2018-09-25T04:46:56.225Z,4.47
2018-09-25T04:49:30.219Z,4.97
2018-09-25T04:52:04.240Z,4.60
2018-09-25T04:54:38.102Z,5.03
2018-09-25T04:57:12.067Z,4.57
2018-09-25T04:59:45.899Z,4.77
2018-09-25T05:02:19.893Z,6.30
2018-09-25T05:04:53.820Z,4.90
2018-09-25T05:07:27.746Z,5.00
2018-09-25T05:10:01.615Z,4.57
2018-09-25T05:12:35.451Z,7.27
2018-09-25T05:15:09.438Z,5.23
2018-09-25T05:17:43.332Z,5.20
2018-09-25T05:20:20.485Z,5.03
2018-09-25T05:22:55.333Z,5.03
2018-09-25T05:25:29.503Z,4.83
2018-09-25T05:28:03.305Z,5.50
2018-09-25T05:30:37.279Z,5.50
2018-09-25T05:33:11.246Z,4.60
2018-09-25T05:35:45.487Z,7.73
2018-09-25T05:38:19.361Z,5.33
2018-09-25T05:40:53.320Z,5.57
2018-09-25T05:43:27.136Z,6.70
2018-09-25T05:46:01.070Z,5.20
2018-09-25T05:48:35.101Z,6.00
2018-09-25T05:51:17.962Z,5.23
2018-09-25T05:53:51.920Z,7.80
2018-09-25T05:56:25.678Z,6.33
2018-09-25T05:58:59.641Z,5.87
2018-09-25T06:01:33.437Z,5.73
2018-09-25T06:04:07.662Z,6.00
2018-09-25T06:06:41.398Z,7.83
2018-09-25T06:09:15.388Z,5.77
2018-09-25T06:11:49.237Z,5.03
2018-09-25T06:14:23.246Z,5.40
2018-09-25T06:16:57.026Z,6.40
2018-09-25T06:19:31.193Z,6.33
2018-09-25T06:22:05.067Z,6.30
2018-09-25T06:24:38.959Z,6.13
2018-09-25T06:27:12.809Z,6.07
2018-09-25T06:29:46.686Z,6.43
2018-09-25T06:32:20.482Z,7.17
2018-09-25T06:34:54.366Z,5.37
2018-09-25T06:37:28.141Z,6.63
2018-09-25T06:40:02.008Z,6.07
2018-09-25T06:42:35.818Z,5.40
2018-09-25T06:45:09.645Z,6.07
2018-09-25T06:47:43.525Z,4.70
2018-09-25T06:50:17.401Z,4.80
2018-09-25T06:52:51.298Z,4.87
2018-09-25T06:55:31.957Z,5.30
2018-09-25T06:58:05.941Z,6.20
2018-09-25T07:00:39.913Z,5.83
2018-09-25T07:03:13.874Z,5.50
2018-09-25T07:05:47.730Z,5.63
2018-09-25T07:08:21.588Z,5.13
2018-09-25T07:10:55.478Z,4.77
2018-09-25T07:13:29.533Z,5.07
2018-09-25T07:16:03.398Z,4.77
2018-09-25T07:18:37.346Z,6.97
2018-09-25T07:21:11.314Z,8.17
2018-09-25T07:23:45.254Z,8.37
2018-09-25T07:26:19.170Z,9.27
2018-09-25T07:28:53.037Z,4.90
2018-09-25T07:31:26.882Z,5.73
2018-09-25T07:34:00.693Z,5.53
2018-09-25T07:36:34.559Z,5.93
2018-09-25T07:39:08.571Z,4.83
2018-09-25T07:41:42.402Z,4.80
2018-09-25T07:44:16.219Z,4.87
2018-09-25T07:46:50.100Z,4.30
2018-09-25T07:49:23.932Z,7.80
2018-09-25T07:51:58.119Z,4.63
2018-09-25T07:54:31.887Z,3.40
2018-09-25T07:57:05.849Z,4.43
2018-09-25T07:59:39.725Z,5.07
2018-09-25T08:02:13.680Z,4.97
2018-09-25T08:04:47.397Z,4.57
2018-09-25T08:07:21.499Z,3.93
2018-09-25T08:09:55.392Z,5.20
2018-09-25T08:12:29.552Z,3.93
2018-09-25T08:15:03.404Z,3.73
2018-09-25T08:17:37.236Z,7.50
2018-09-25T08:20:11.289Z,3.57
2018-09-25T08:22:45.365Z,5.27
2018-09-25T08:25:19.230Z,6.37
2018-09-25T08:27:53.079Z,5.07
2018-09-25T08:30:26.937Z,6.23
2018-09-25T08:33:00.866Z,4.97
2018-09-25T08:35:34.752Z,3.77
2018-09-25T08:38:08.678Z,6.20
2018-09-25T08:40:42.597Z,6.30
2018-09-25T08:43:16.554Z,3.30
2018-09-25T08:45:50.512Z,4.07
2018-09-25T08:48:24.279Z,5.50
2018-09-25T08:50:58.190Z,5.83
2018-09-25T08:53:32.155Z,3.27
2018-09-25T08:56:06.189Z,4.13
2018-09-25T08:58:40.086Z,4.30
2018-09-25T09:01:13.974Z,4.10
2018-09-25T09:03:47.875Z,4.80
2018-09-25T09:06:21.769Z,4.83
2018-09-25T09:08:55.579Z,7.20
2018-09-25T09:11:29.563Z,3.83
2018-09-25T09:14:03.415Z,3.27
2018-09-25T09:16:37.161Z,4.57
2018-09-25T09:19:11.138Z,3.50
2018-09-25T09:21:44.937Z,2.83
2018-09-25T09:24:18.878Z,3.63
2018-09-25T09:26:52.721Z,4.23
2018-09-25T09:29:26.578Z,2.50
2018-09-25T09:32:00.342Z,2.63
2018-09-25T09:34:34.221Z,4.13
2018-09-25T09:37:08.002Z,4.17
2018-09-25T09:39:41.965Z,3.77
2018-09-25T09:42:15.981Z,4.43
2018-09-25T09:44:49.905Z,1.93
2018-09-25T09:47:23.905Z,3.87
2018-09-25T09:49:57.801Z,2.87
2018-09-25T09:52:31.740Z,5.37
2018-09-25T09:55:05.521Z,4.30
2018-09-25T09:57:39.346Z,2.70
2018-09-25T10:00:13.226Z,2.07
2018-09-25T10:02:47.082Z,1.87
2018-09-25T10:05:21.186Z,2.23
2018-09-25T10:07:55.154Z,2.90
2018-09-25T10:10:28.934Z,3.87
2018-09-25T10:13:02.849Z,4.20
2018-09-25T10:15:36.701Z,5.27
2018-09-25T10:18:10.504Z,6.53
2018-09-25T10:20:44.463Z,6.63
2018-09-25T10:23:18.338Z,3.40
2018-09-25T10:25:52.181Z,1.40
2018-09-25T10:28:26.082Z,2.87
2018-09-25T10:30:59.867Z,3.93
2018-09-25T10:33:33.757Z,4.27
2018-09-25T10:36:07.862Z,4.40
2018-09-25T10:38:41.816Z,2.73
2018-09-25T10:41:15.576Z,1.90
2018-09-25T10:43:49.390Z,3.03
2018-09-25T10:46:23.326Z,2.00
2018-09-25T10:48:57.379Z,3.70
2018-09-25T10:51:31.400Z,4.83
2018-09-25T10:54:05.259Z,2.23
2018-09-25T10:56:39.268Z,5.80
2018-09-25T10:59:13.182Z,2.17
2018-09-25T11:01:47.234Z,2.67
2018-09-25T11:04:20.941Z,3.17
2018-09-25T11:06:54.984Z,2.53
2018-09-25T11:09:28.883Z,1.40
2018-09-25T11:12:02.706Z,2.60
2018-09-25T11:14:36.484Z,1.63
2018-09-25T11:17:10.369Z,3.77
2018-09-25T11:19:44.310Z,1.90
2018-09-25T11:22:18.273Z,3.53
2018-09-25T11:24:52.249Z,6.03
2018-09-25T11:27:26.199Z,3.07
2018-09-25T11:30:00.042Z,5.10
2018-09-25T11:32:33.994Z,4.30
2018-09-25T11:35:08.819Z,1.87
2018-09-25T11:37:42.762Z,4.17
2018-09-25T11:40:16.604Z,4.97
2018-09-25T11:42:50.478Z,2.47
2018-09-25T11:45:24.253Z,2.43
2018-09-25T11:48:05.081Z,2.53
2018-09-25T11:50:38.905Z,4.03
2018-09-25T11:53:12.903Z,2.47
2018-09-25T11:55:46.834Z,2.27
2018-09-25T11:58:20.627Z,13.03
2018-09-25T12:00:54.571Z,4.50
2018-09-25T12:03:28.382Z,3.70
2018-09-25T12:06:02.157Z,4.67
2018-09-25T12:08:35.917Z,3.13
2018-09-25T12:11:09.896Z,3.93
2018-09-25T12:13:43.749Z,3.27
2018-09-25T12:16:17.493Z,2.07
2018-09-25T12:18:51.344Z,3.63
2018-09-25T12:21:25.242Z,4.70
2018-09-25T12:23:58.996Z,3.10
2018-09-25T12:26:32.757Z,1.50
2018-09-25T12:29:06.634Z,2.33
2018-09-25T12:31:40.476Z,2.50
2018-09-25T12:34:14.333Z,3.67
2018-09-25T12:36:48.334Z,3.70
2018-09-25T12:39:22.240Z,6.33
2018-09-25T12:41:55.966Z,1.90
2018-09-25T12:44:29.970Z,3.60
2018-09-25T12:47:03.987Z,2.87
2018-09-25T12:49:37.909Z,2.77
2018-09-25T12:52:11.836Z,1.47
2018-09-25T12:54:45.795Z,4.03
2018-09-25T12:57:19.672Z,4.00
2018-09-25T12:59:53.531Z,2.97
2018-09-25T13:02:27.428Z,1.83
2018-09-25T13:05:01.433Z,1.20
2018-09-25T13:07:35.293Z,1.60
2018-09-25T13:10:09.226Z,5.80
2018-09-25T13:12:43.158Z,2.37
2018-09-25T13:15:16.985Z,3.73
2018-09-25T13:17:50.919Z,2.10
2018-09-25T13:20:24.899Z,3.07
2018-09-25T13:22:58.833Z,5.13
2018-09-25T13:25:32.611Z,2.10
2018-09-25T13:28:06.475Z,3.23
2018-09-25T13:30:40.445Z,1.67
2018-09-25T13:33:14.494Z,2.17
2018-09-25T13:35:48.348Z,2.00
2018-09-25T13:38:22.151Z,4.10
2018-09-25T13:40:55.949Z,2.10
2018-09-25T13:43:29.829Z,2.33
2018-09-25T13:46:03.751Z,4.53
2018-09-25T13:48:37.645Z,3.73
2018-09-25T13:51:11.745Z,2.90
2018-09-25T13:53:45.661Z,2.40
2018-09-25T13:56:19.474Z,1.37
2018-09-25T13:58:53.479Z,4.73
2018-09-25T14:01:27.340Z,2.90
2018-09-25T14:04:01.361Z,3.17
2018-09-25T14:06:35.309Z,1.93
2018-09-25T14:09:09.471Z,2.07
2018-09-25T14:11:43.466Z,1.30
2018-09-25T14:14:17.316Z,1.67
2018-09-25T14:16:51.188Z,1.40
2018-09-25T14:19:25.150Z,1.90
2018-09-25T14:21:59.014Z,1.80
2018-09-25T14:24:33.416Z,3.87
2018-09-25T14:27:07.242Z,2.43
2018-09-25T14:29:41.110Z,2.57
2018-09-25T14:32:14.863Z,1.00
2018-09-25T14:34:48.837Z,1.20
2018-09-25T14:37:22.786Z,2.00
2018-09-25T14:39:56.611Z,1.83
2018-09-25T14:42:30.481Z,1.30
2018-09-25T14:45:04.557Z,3.87
2018-09-25T14:47:42.492Z,1.47
2018-09-25T14:50:17.331Z,1.83
2018-09-25T14:52:51.158Z,1.33
2018-09-25T14:55:25.315Z,1.93
2018-09-25T14:57:59.249Z,2.57
2018-09-25T15:00:33.151Z,4.13
2018-09-25T15:03:07.063Z,1.60
2018-09-25T15:05:40.941Z,2.20
2018-09-25T15:08:14.787Z,2.13
2018-09-25T15:10:48.848Z,1.67
2018-09-25T15:13:22.613Z,1.17
2018-09-25T15:15:56.606Z,2.80
2018-09-25T15:18:30.385Z,1.60
2018-09-25T15:21:04.402Z,4.27
2018-09-25T15:23:38.207Z,2.00
2018-09-25T15:26:12.082Z,2.90
2018-09-25T15:28:45.913Z,1.30
2018-09-25T15:31:19.718Z,2.17
2018-09-25T15:33:53.560Z,1.47
2018-09-25T15:36:27.414Z,1.33
2018-09-25T15:39:01.517Z,2.00
2018-09-25T15:41:35.400Z,2.30
2018-09-25T15:44:09.173Z,1.80
2018-09-25T15:46:43.075Z,3.10
2018-09-25T15:49:17.029Z,1.97
2018-09-25T15:51:50.741Z,3.07
2018-09-25T15:54:24.607Z,3.07
2018-09-25T15:56:58.525Z,2.23
2018-09-25T15:59:32.380Z,1.70
2018-09-25T16:02:06.410Z,4.27
2018-09-25T16:04:40.398Z,2.23
2018-09-25T16:07:14.101Z,2.03
2018-09-25T16:09:47.927Z,2.00
2018-09-25T16:12:21.647Z,2.20
2018-09-25T16:14:55.556Z,3.73
2018-09-25T16:17:29.423Z,3.77
2018-09-25T16:20:03.315Z,2.90
2018-09-25T16:22:37.055Z,1.57
2018-09-25T16:25:11.186Z,2.07
2018-09-25T16:27:45.123Z,4.03
2018-09-25T16:30:19.118Z,4.47
2018-09-25T16:32:53.034Z,3.67
2018-09-25T16:35:26.949Z,2.97
2018-09-25T16:38:01.148Z,2.30
2018-09-25T16:40:35.058Z,2.83
2018-09-25T16:43:08.902Z,2.17
2018-09-25T16:45:45.160Z,2.77
2018-09-25T16:48:19.015Z,2.43
2018-09-25T16:50:52.937Z,3.23
2018-09-25T16:53:26.850Z,4.30
2018-09-25T16:56:00.706Z,3.60
2018-09-25T16:58:34.643Z,1.93
2018-09-25T17:01:08.854Z,2.80
2018-09-25T17:03:42.953Z,3.23
2018-09-25T17:06:16.767Z,2.20
2018-09-25T17:08:50.538Z,2.77
2018-09-25T17:11:25.443Z,2.10
2018-09-25T17:13:59.264Z,3.13
2018-09-25T17:16:33.143Z,1.70
2018-09-25T17:19:07.201Z,2.43
2018-09-25T17:21:41.158Z,3.97
2018-09-25T17:24:15.058Z,2.83
2018-09-25T17:26:48.924Z,4.07
2018-09-25T17:29:22.959Z,12.27
2018-09-25T17:31:56.921Z,26.10
2018-09-25T17:37:12.918Z,22.80
2018-09-25T17:39:46.828Z,9.97
2018-09-25T17:42:20.713Z,11.37
2018-09-25T17:44:54.515Z,5.87
2018-09-25T17:47:28.382Z,10.33
2018-09-25T17:50:02.440Z,8.63
2018-09-25T17:52:36.237Z,10.13
2018-09-25T17:55:10.074Z,6.87
2018-09-25T17:57:44.831Z,6.60
2018-09-25T18:00:18.831Z,4.47
2018-09-25T18:02:52.688Z,5.30
2018-09-25T18:05:26.882Z,7.63
2018-09-25T18:08:00.867Z,7.13
2018-09-25T18:10:34.783Z,6.57
2018-09-25T18:13:08.891Z,5.80
2018-09-25T18:15:42.881Z,6.87
2018-09-25T18:18:16.794Z,3.67
2018-09-25T18:20:50.925Z,22.47
2018-09-25T18:23:24.729Z,9.53
2018-09-25T18:25:58.735Z,9.53
2018-09-25T18:28:32.697Z,13.67
2018-09-25T18:31:06.580Z,8.93
2018-09-25T18:33:40.461Z,6.73
2018-09-25T18:36:14.612Z,8.63
2018-09-25T18:38:48.465Z,15.00
2018-09-25T18:41:22.565Z,16.80
2018-09-25T18:43:56.415Z,6.13
2018-09-25T18:46:30.258Z,4.33
2018-09-25T18:49:04.055Z,8.80
2018-09-25T18:51:37.964Z,8.10
2018-09-25T18:54:11.806Z,6.57
2018-09-25T18:56:45.797Z,7.10
2018-09-25T18:59:19.705Z,11.80
2018-09-25T19:01:53.679Z,6.43
2018-09-25T19:04:27.738Z,7.93
2018-09-25T19:07:01.985Z,5.47
2018-09-25T19:09:35.856Z,9.27
2018-09-25T19:12:09.777Z,7.13
2018-09-25T19:14:43.781Z,9.03
2018-09-25T19:17:17.753Z,5.03
2018-09-25T19:19:51.770Z,7.30
2018-09-25T19:22:25.772Z,5.83
2018-09-25T19:24:59.697Z,8.17
2018-09-25T19:27:33.598Z,7.87
2018-09-25T19:30:08.054Z,8.50
2018-09-25T19:32:42.076Z,8.80
2018-09-25T19:35:15.936Z,5.13
2018-09-25T19:37:49.865Z,6.17
2018-09-25T19:40:23.701Z,5.77
2018-09-25T19:42:57.683Z,5.83
2018-09-25T19:45:31.942Z,7.30
2018-09-25T19:48:06.046Z,7.30
2018-09-25T19:50:46.761Z,8.57
2018-09-25T19:53:20.672Z,7.07
2018-09-25T19:55:54.613Z,6.83
2018-09-25T19:58:28.683Z,7.37
2018-09-25T20:01:02.562Z,7.27
2018-09-25T20:03:36.350Z,8.87
2018-09-25T20:06:10.230Z,7.10
2018-09-25T20:08:44.250Z,10.00
2018-09-25T20:11:18.086Z,6.90
2018-09-25T20:13:52.174Z,8.90
2018-09-25T20:16:26.111Z,7.83
2018-09-25T20:19:00.001Z,12.63
2018-09-25T20:21:33.787Z,9.97
2018-09-25T20:24:07.741Z,10.73
2018-09-25T20:26:41.682Z,9.97
2018-09-25T20:29:15.481Z,9.07
2018-09-25T20:31:49.574Z,8.00
2018-09-25T20:34:23.447Z,6.37
2018-09-25T20:36:57.295Z,6.77
2018-09-25T20:39:31.126Z,7.40
2018-09-25T20:42:05.159Z,7.73
2018-09-25T20:44:39.018Z,7.97
2018-09-25T20:47:13.026Z,8.40
2018-09-25T20:49:46.886Z,7.40
2018-09-25T20:52:20.980Z,8.43
2018-09-25T20:54:54.748Z,9.70
2018-09-25T20:57:28.532Z,21.27
2018-09-25T21:00:02.486Z,15.53
2018-09-25T21:02:42.990Z,10.97
2018-09-25T21:05:16.757Z,9.83
2018-09-25T21:07:50.611Z,14.27
2018-09-25T21:10:24.481Z,10.33
2018-09-25T21:12:58.370Z,9.53
2018-09-25T21:15:32.266Z,8.90
2018-09-25T21:18:06.141Z,7.73
2018-09-25T21:20:39.961Z,7.83
2018-09-25T21:23:13.891Z,7.97
2018-09-25T21:25:47.629Z,7.13
2018-09-25T21:28:21.551Z,6.70
2018-09-25T21:30:55.403Z,7.73
2018-09-25T21:33:29.467Z,9.63
2018-09-25T21:36:03.447Z,7.37
2018-09-25T21:38:37.405Z,6.60
2018-09-25T21:41:11.665Z,6.27
2018-09-25T21:43:45.522Z,5.67
2018-09-25T21:46:19.553Z,7.53
2018-09-25T21:48:53.384Z,7.27
2018-09-25T21:51:27.318Z,7.00
2018-09-25T21:54:01.093Z,5.50
2018-09-25T21:56:34.876Z,6.63
2018-09-25T21:59:09.042Z,6.77
2018-09-25T22:01:42.910Z,7.13
2018-09-25T22:04:17.809Z,7.83
2018-09-25T22:06:51.654Z,6.87
2018-09-25T22:09:25.552Z,6.57
2018-09-25T22:11:59.556Z,9.60
2018-09-25T22:14:33.374Z,6.27
2018-09-25T22:17:07.204Z,9.30
2018-09-25T22:19:41.636Z,5.77
2018-09-25T22:22:15.381Z,6.20
2018-09-25T22:24:49.227Z,6.20
2018-09-25T22:27:22.987Z,5.53
2018-09-25T22:29:56.916Z,5.70
2018-09-25T22:32:30.778Z,5.50
2018-09-25T22:35:04.621Z,7.30
2018-09-25T22:37:38.519Z,7.23
2018-09-25T22:40:12.418Z,6.10
2018-09-25T22:42:46.129Z,5.17
2018-09-25T22:45:19.945Z,5.60
2018-09-25T22:47:53.840Z,6.83
2018-09-25T22:50:27.721Z,4.73
2018-09-25T22:53:01.581Z,6.60
2018-09-25T22:55:35.541Z,5.17
2018-09-25T22:58:09.371Z,8.37
2018-09-25T23:00:43.198Z,6.37
2018-09-25T23:03:17.137Z,7.17
2018-09-25T23:05:51.200Z,5.13
2018-09-25T23:08:25.121Z,5.33
2018-09-25T23:10:59.206Z,4.73
2018-09-25T23:13:33.022Z,5.17
2018-09-25T23:16:06.902Z,5.00
2018-09-25T23:18:40.862Z,5.50
2018-09-25T23:21:15.101Z,7.13
2018-09-25T23:23:48.970Z,7.53
2018-09-25T23:26:22.925Z,5.40
2018-09-25T23:28:56.761Z,6.67
2018-09-25T23:31:30.729Z,5.77
2018-09-25T23:34:04.498Z,7.07
2018-09-25T23:36:38.413Z,6.57
2018-09-25T23:39:14.877Z,4.97
2018-09-25T23:41:47.802Z,7.13
2018-09-25T23:44:21.903Z,6.97
2018-09-25T23:47:01.576Z,5.33
2018-09-25T23:50:33.075Z,7.17
2018-09-25T23:53:07.889Z,6.10
2018-09-25T23:55:45.829Z,5.87
2018-09-25T23:58:27.661Z,5.83
